sensor_id;sensor_type;location;lat;lon;timestamp;temperature;humidity
8988;DHT22;4529;51.360;12.474;2023-07-16T00:01:01;22.50;99.90
8988;DHT22;4529;51.360;12.474;2023-07-16T00:06:05;22.50;99.90
8988;DHT22;4529;51.360;12.474;2023-07-16T00:11:08;22.50;99.90
8988;DHT22;4529;51.360;12.474;2023-07-16T00:16:12;22.50;99.90
8988;DHT22;4529;51.360;12.474;2023-07-16T00:21:20;22.40;99.90
8988;DHT22;4529;51.360;12.474;2023-07-16T00:26:24;22.40;99.90
8988;DHT22;4529;51.360;12.474;2023-07-16T00:31:27;22.30;99.90
8988;DHT22;4529;51.360;12.474;2023-07-16T00:36:31;22.20;99.90
8988;DHT22;4529;51.360;12.474;2023-07-16T00:41:34;22.10;99.90
8988;DHT22;4529;51.360;12.474;2023-07-16T00:46:37;21.90;99.90
8988;DHT22;4529;51.360;12.474;2023-07-16T00:51:41;21.70;99.90
8988;DHT22;4529;51.360;12.474;2023-07-16T00:56:44;21.50;99.90
8988;DHT22;4529;51.360;12.474;2023-07-16T01:01:48;21.40;99.90
8988;DHT22;4529;51.360;12.474;2023-07-16T01:06:52;21.30;99.90
8988;DHT22;4529;51.360;12.474;2023-07-16T01:11:55;21.20;99.90
8988;DHT22;4529;51.360;12.474;2023-07-16T01:17:01;21.20;99.90
8988;DHT22;4529;51.360;12.474;2023-07-16T01:27:44;21.20;99.90
8988;DHT22;4529;51.360;12.474;2023-07-16T01:32:46;21.30;99.90
8988;DHT22;4529;51.360;12.474;2023-07-16T01:37:49;21.30;99.90
8988;DHT22;4529;51.360;12.474;2023-07-16T01:42:54;21.20;99.90
8988;DHT22;4529;51.360;12.474;2023-07-16T01:48:06;21.20;99.90
8988;DHT22;4529;51.360;12.474;2023-07-16T01:53:06;21.20;99.90
8988;DHT22;4529;51.360;12.474;2023-07-16T01:58:10;21.30;99.90
8988;DHT22;4529;51.360;12.474;2023-07-16T02:03:13;21.20;99.90
8988;DHT22;4529;51.360;12.474;2023-07-16T02:08:17;21.20;99.90
8988;DHT22;4529;51.360;12.474;2023-07-16T02:13:20;21.20;99.90
8988;DHT22;4529;51.360;12.474;2023-07-16T02:18:24;21.20;99.90
8988;DHT22;4529;51.360;12.474;2023-07-16T02:23:27;21.20;99.90
8988;DHT22;4529;51.360;12.474;2023-07-16T02:28:31;21.20;99.90
8988;DHT22;4529;51.360;12.474;2023-07-16T02:33:34;21.20;99.90
8988;DHT22;4529;51.360;12.474;2023-07-16T02:38:38;21.20;99.90
8988;DHT22;4529;51.360;12.474;2023-07-16T02:43:41;21.20;99.90
8988;DHT22;4529;51.360;12.474;2023-07-16T02:48:50;21.20;99.90
8988;DHT22;4529;51.360;12.474;2023-07-16T02:53:53;21.20;99.90
8988;DHT22;4529;51.360;12.474;2023-07-16T02:58:57;21.20;99.90
8988;DHT22;4529;51.360;12.474;2023-07-16T03:04:00;21.30;99.90
8988;DHT22;4529;51.360;12.474;2023-07-16T03:09:04;21.30;99.90
8988;DHT22;4529;51.360;12.474;2023-07-16T03:14:08;21.30;99.90
8988;DHT22;4529;51.360;12.474;2023-07-16T03:19:21;21.30;99.90
8988;DHT22;4529;51.360;12.474;2023-07-16T03:24:24;21.30;99.90
8988;DHT22;4529;51.360;12.474;2023-07-16T03:29:28;21.30;99.90
8988;DHT22;4529;51.360;12.474;2023-07-16T03:34:31;21.30;99.90
8988;DHT22;4529;51.360;12.474;2023-07-16T03:39:35;21.30;99.90
8988;DHT22;4529;51.360;12.474;2023-07-16T03:44:38;21.20;99.90
8988;DHT22;4529;51.360;12.474;2023-07-16T03:49:47;21.30;99.90
8988;DHT22;4529;51.360;12.474;2023-07-16T03:54:50;21.20;99.90
8988;DHT22;4529;51.360;12.474;2023-07-16T03:59:54;21.20;99.90
8988;DHT22;4529;51.360;12.474;2023-07-16T04:04:57;21.20;99.90
8988;DHT22;4529;51.360;12.474;2023-07-16T04:10:01;21.30;99.90
8988;DHT22;4529;51.360;12.474;2023-07-16T04:15:06;21.30;99.90
8988;DHT22;4529;51.360;12.474;2023-07-16T04:20:17;21.40;99.90
8988;DHT22;4529;51.360;12.474;2023-07-16T04:25:20;21.40;99.90
8988;DHT22;4529;51.360;12.474;2023-07-16T04:30:24;21.40;99.90
8988;DHT22;4529;51.360;12.474;2023-07-16T04:35:27;21.30;99.90
8988;DHT22;4529;51.360;12.474;2023-07-16T04:40:31;21.40;99.90
8988;DHT22;4529;51.360;12.474;2023-07-16T04:45:34;21.40;99.90
8988;DHT22;4529;51.360;12.474;2023-07-16T04:50:43;21.40;99.90
8988;DHT22;4529;51.360;12.474;2023-07-16T04:55:47;21.60;99.90
8988;DHT22;4529;51.360;12.474;2023-07-16T05:00:50;21.60;99.90
8988;DHT22;4529;51.360;12.474;2023-07-16T05:05:54;21.60;99.90
8988;DHT22;4529;51.360;12.474;2023-07-16T05:10:57;21.60;99.90
8988;DHT22;4529;51.360;12.474;2023-07-16T05:16:01;21.70;99.90
8988;DHT22;4529;51.360;12.474;2023-07-16T05:21:04;21.80;99.90
8988;DHT22;4529;51.360;12.474;2023-07-16T05:26:08;22.10;99.90
8988;DHT22;4529;51.360;12.474;2023-07-16T05:31:11;22.20;99.90
8988;DHT22;4529;51.360;12.474;2023-07-16T05:36:15;22.40;99.90
8988;DHT22;4529;51.360;12.474;2023-07-16T05:41:18;22.40;99.90
8988;DHT22;4529;51.360;12.474;2023-07-16T05:46:22;22.40;99.90
8988;DHT22;4529;51.360;12.474;2023-07-16T05:51:25;22.50;99.90
8988;DHT22;4529;51.360;12.474;2023-07-16T05:56:28;22.50;99.90
8988;DHT22;4529;51.360;12.474;2023-07-16T06:01:32;22.40;99.90
8988;DHT22;4529;51.360;12.474;2023-07-16T06:06:35;22.60;99.90
8988;DHT22;4529;51.360;12.474;2023-07-16T06:11:39;22.90;99.90
8988;DHT22;4529;51.360;12.474;2023-07-16T06:16:42;23.20;99.90
8988;DHT22;4529;51.360;12.474;2023-07-16T06:21:46;23.40;99.90
8988;DHT22;4529;51.360;12.474;2023-07-16T06:26:49;23.60;99.90
8988;DHT22;4529;51.360;12.474;2023-07-16T06:31:56;23.70;99.90
8988;DHT22;4529;51.360;12.474;2023-07-16T06:36:59;23.90;99.90
8988;DHT22;4529;51.360;12.474;2023-07-16T06:42:03;23.70;99.90
8988;DHT22;4529;51.360;12.474;2023-07-16T06:47:06;23.70;99.90
8988;DHT22;4529;51.360;12.474;2023-07-16T06:52:19;23.90;99.90
8988;DHT22;4529;51.360;12.474;2023-07-16T06:57:23;24.20;99.90
8988;DHT22;4529;51.360;12.474;2023-07-16T07:02:27;24.10;99.90
8988;DHT22;4529;51.360;12.474;2023-07-16T07:07:30;24.10;99.90
8988;DHT22;4529;51.360;12.474;2023-07-16T07:12:34;24.20;99.90
8988;DHT22;4529;51.360;12.474;2023-07-16T07:17:39;24.20;99.90
8988;DHT22;4529;51.360;12.474;2023-07-16T07:22:41;24.30;99.90
8988;DHT22;4529;51.360;12.474;2023-07-16T07:27:44;24.40;99.90
8988;DHT22;4529;51.360;12.474;2023-07-16T07:32:48;24.50;99.90
8988;DHT22;4529;51.360;12.474;2023-07-16T07:37:51;24.60;99.90
8988;DHT22;4529;51.360;12.474;2023-07-16T07:42:55;24.90;99.90
8988;DHT22;4529;51.360;12.474;2023-07-16T07:47:58;25.10;99.90
8988;DHT22;4529;51.360;12.474;2023-07-16T07:53:05;25.00;99.90
8988;DHT22;4529;51.360;12.474;2023-07-16T07:58:08;25.00;99.90
8988;DHT22;4529;51.360;12.474;2023-07-16T08:03:12;25.40;99.90
8988;DHT22;4529;51.360;12.474;2023-07-16T08:08:15;25.40;99.90
8988;DHT22;4529;51.360;12.474;2023-07-16T08:13:18;25.50;99.90
8988;DHT22;4529;51.360;12.474;2023-07-16T08:18:22;25.70;99.90
8988;DHT22;4529;51.360;12.474;2023-07-16T08:23:26;25.90;99.90
8988;DHT22;4529;51.360;12.474;2023-07-16T08:28:30;26.30;99.90
8988;DHT22;4529;51.360;12.474;2023-07-16T08:33:34;26.50;99.90
8988;DHT22;4529;51.360;12.474;2023-07-16T08:38:38;26.60;99.90
8988;DHT22;4529;51.360;12.474;2023-07-16T08:43:43;26.60;99.90
8988;DHT22;4529;51.360;12.474;2023-07-16T08:48:50;26.90;99.90
8988;DHT22;4529;51.360;12.474;2023-07-16T08:53:53;26.80;99.90
8988;DHT22;4529;51.360;12.474;2023-07-16T08:58:57;27.00;99.90
8988;DHT22;4529;51.360;12.474;2023-07-16T09:04:00;27.00;99.90
8988;DHT22;4529;51.360;12.474;2023-07-16T09:09:04;27.00;99.90
8988;DHT22;4529;51.360;12.474;2023-07-16T09:14:07;26.90;99.90
8988;DHT22;4529;51.360;12.474;2023-07-16T09:19:16;27.10;99.90
8988;DHT22;4529;51.360;12.474;2023-07-16T09:24:19;27.20;99.20
8988;DHT22;4529;51.360;12.474;2023-07-16T09:29:24;27.30;98.30
8988;DHT22;4529;51.360;12.474;2023-07-16T09:34:29;27.30;97.00
8988;DHT22;4529;51.360;12.474;2023-07-16T09:39:33;27.40;98.10
8988;DHT22;4529;51.360;12.474;2023-07-16T09:44:36;27.40;99.80
8988;DHT22;4529;51.360;12.474;2023-07-16T09:54:45;27.50;96.80
8988;DHT22;4529;51.360;12.474;2023-07-16T09:59:50;27.40;95.40
8988;DHT22;4529;51.360;12.474;2023-07-16T10:04:54;27.50;94.20
8988;DHT22;4529;51.360;12.474;2023-07-16T10:09:58;27.70;93.70
8988;DHT22;4529;51.360;12.474;2023-07-16T10:15:02;27.70;92.20
8988;DHT22;4529;51.360;12.474;2023-07-16T10:20:07;27.90;93.20
8988;DHT22;4529;51.360;12.474;2023-07-16T10:30:22;28.10;92.60
8988;DHT22;4529;51.360;12.474;2023-07-16T10:35:27;28.00;90.60
8988;DHT22;4529;51.360;12.474;2023-07-16T10:40:31;27.80;91.60
8988;DHT22;4529;51.360;12.474;2023-07-16T10:45:35;27.70;90.90
8988;DHT22;4529;51.360;12.474;2023-07-16T10:50:39;27.80;91.30
8988;DHT22;4529;51.360;12.474;2023-07-16T10:55:43;27.80;90.10
8988;DHT22;4529;51.360;12.474;2023-07-16T11:00:47;27.90;88.50
8988;DHT22;4529;51.360;12.474;2023-07-16T11:05:51;27.80;90.30
8988;DHT22;4529;51.360;12.474;2023-07-16T11:10:58;27.90;87.30
8988;DHT22;4529;51.360;12.474;2023-07-16T11:16:08;27.90;87.00
8988;DHT22;4529;51.360;12.474;2023-07-16T11:21:11;28.00;87.20
8988;DHT22;4529;51.360;12.474;2023-07-16T11:26:15;28.10;87.10
8988;DHT22;4529;51.360;12.474;2023-07-16T11:31:18;28.40;88.00
8988;DHT22;4529;51.360;12.474;2023-07-16T11:36:21;28.30;85.70
8988;DHT22;4529;51.360;12.474;2023-07-16T11:41:25;28.30;86.50
8988;DHT22;4529;51.360;12.474;2023-07-16T11:46:32;28.30;83.30
8988;DHT22;4529;51.360;12.474;2023-07-16T11:51:35;28.10;83.30
8988;DHT22;4529;51.360;12.474;2023-07-16T11:56:39;28.20;83.90
8988;DHT22;4529;51.360;12.474;2023-07-16T12:01:43;28.20;80.70
8988;DHT22;4529;51.360;12.474;2023-07-16T12:06:47;28.40;80.70
8988;DHT22;4529;51.360;12.474;2023-07-16T12:11:51;28.60;79.60
8988;DHT22;4529;51.360;12.474;2023-07-16T12:16:55;28.40;81.30
8988;DHT22;4529;51.360;12.474;2023-07-16T12:22:00;28.30;84.30
8988;DHT22;4529;51.360;12.474;2023-07-16T12:27:04;28.10;80.80
8988;DHT22;4529;51.360;12.474;2023-07-16T12:32:08;28.10;80.90
8988;DHT22;4529;51.360;12.474;2023-07-16T12:37:11;28.20;82.90
8988;DHT22;4529;51.360;12.474;2023-07-16T12:42:15;28.50;75.20
8988;DHT22;4529;51.360;12.474;2023-07-16T12:47:19;28.50;75.10
8988;DHT22;4529;51.360;12.474;2023-07-16T12:52:23;28.40;76.70
8988;DHT22;4529;51.360;12.474;2023-07-16T12:57:28;28.50;72.70
8988;DHT22;4529;51.360;12.474;2023-07-16T13:02:32;28.40;72.60
8988;DHT22;4529;51.360;12.474;2023-07-16T13:07:35;28.60;71.70
8988;DHT22;4529;51.360;12.474;2023-07-16T13:12:38;28.60;74.20
8988;DHT22;4529;51.360;12.474;2023-07-16T13:17:42;28.80;74.60
8988;DHT22;4529;51.360;12.474;2023-07-16T13:22:45;28.70;72.90
8988;DHT22;4529;51.360;12.474;2023-07-16T13:27:49;28.50;76.00
8988;DHT22;4529;51.360;12.474;2023-07-16T13:32:52;28.60;75.90
8988;DHT22;4529;51.360;12.474;2023-07-16T13:37:56;28.30;75.10
8988;DHT22;4529;51.360;12.474;2023-07-16T13:43:00;28.30;72.00
8988;DHT22;4529;51.360;12.474;2023-07-16T13:48:04;28.10;74.90
8988;DHT22;4529;51.360;12.474;2023-07-16T13:53:08;28.10;74.80
8988;DHT22;4529;51.360;12.474;2023-07-16T13:58:12;28.00;73.60
8988;DHT22;4529;51.360;12.474;2023-07-16T14:03:15;28.00;73.50
8988;DHT22;4529;51.360;12.474;2023-07-16T14:08:19;28.00;74.90
8988;DHT22;4529;51.360;12.474;2023-07-16T14:13:22;28.30;75.60
8988;DHT22;4529;51.360;12.474;2023-07-16T14:18:26;28.40;72.20
8988;DHT22;4529;51.360;12.474;2023-07-16T14:23:29;28.20;71.40
8988;DHT22;4529;51.360;12.474;2023-07-16T14:28:33;28.00;72.20
8988;DHT22;4529;51.360;12.474;2023-07-16T14:33:36;27.90;72.90
8988;DHT22;4529;51.360;12.474;2023-07-16T14:38:39;28.00;73.50
8988;DHT22;4529;51.360;12.474;2023-07-16T14:43:43;27.90;74.70
8988;DHT22;4529;51.360;12.474;2023-07-16T14:48:46;28.00;74.00
8988;DHT22;4529;51.360;12.474;2023-07-16T14:53:50;28.20;72.80
8988;DHT22;4529;51.360;12.474;2023-07-16T14:58:53;28.20;72.80
8988;DHT22;4529;51.360;12.474;2023-07-16T15:03:57;28.20;71.30
8988;DHT22;4529;51.360;12.474;2023-07-16T15:09:00;28.30;70.90
8988;DHT22;4529;51.360;12.474;2023-07-16T15:14:05;28.20;69.30
8988;DHT22;4529;51.360;12.474;2023-07-16T15:19:09;28.20;69.30
8988;DHT22;4529;51.360;12.474;2023-07-16T15:24:12;28.20;68.90
8988;DHT22;4529;51.360;12.474;2023-07-16T15:29:16;28.30;69.10
8988;DHT22;4529;51.360;12.474;2023-07-16T15:34:19;28.20;71.00
8988;DHT22;4529;51.360;12.474;2023-07-16T15:39:23;28.10;71.00
8988;DHT22;4529;51.360;12.474;2023-07-16T15:44:26;28.00;71.30
8988;DHT22;4529;51.360;12.474;2023-07-16T15:49:29;27.80;73.50
8988;DHT22;4529;51.360;12.474;2023-07-16T15:54:33;27.90;68.90
8988;DHT22;4529;51.360;12.474;2023-07-16T15:59:37;27.80;68.90
8988;DHT22;4529;51.360;12.474;2023-07-16T16:04:40;27.70;69.30
8988;DHT22;4529;51.360;12.474;2023-07-16T16:09:43;27.70;69.20
8988;DHT22;4529;51.360;12.474;2023-07-16T16:14:47;27.60;70.50
8988;DHT22;4529;51.360;12.474;2023-07-16T16:20:06;27.50;69.60
8988;DHT22;4529;51.360;12.474;2023-07-16T16:25:10;27.50;69.70
8988;DHT22;4529;51.360;12.474;2023-07-16T16:30:14;27.60;66.80
8988;DHT22;4529;51.360;12.474;2023-07-16T16:35:18;27.50;67.20
8988;DHT22;4529;51.360;12.474;2023-07-16T16:40:22;27.50;66.60
8988;DHT22;4529;51.360;12.474;2023-07-16T16:45:26;27.50;66.10
8988;DHT22;4529;51.360;12.474;2023-07-16T16:50:31;27.50;66.90
8988;DHT22;4529;51.360;12.474;2023-07-16T16:55:35;27.30;69.00
8988;DHT22;4529;51.360;12.474;2023-07-16T17:00:39;27.30;68.60
8988;DHT22;4529;51.360;12.474;2023-07-16T17:05:43;27.30;68.60
8988;DHT22;4529;51.360;12.474;2023-07-16T17:10:48;27.20;69.20
8988;DHT22;4529;51.360;12.474;2023-07-16T17:15:51;27.30;68.30
8988;DHT22;4529;51.360;12.474;2023-07-16T17:20:55;27.30;68.60
8988;DHT22;4529;51.360;12.474;2023-07-16T17:26:00;27.20;68.80
8988;DHT22;4529;51.360;12.474;2023-07-16T17:31:04;27.20;68.70
8988;DHT22;4529;51.360;12.474;2023-07-16T17:36:07;27.10;68.70
8988;DHT22;4529;51.360;12.474;2023-07-16T17:41:11;27.00;68.10
8988;DHT22;4529;51.360;12.474;2023-07-16T17:46:14;27.00;68.60
8988;DHT22;4529;51.360;12.474;2023-07-16T17:51:20;26.80;69.70
8988;DHT22;4529;51.360;12.474;2023-07-16T17:56:21;26.60;69.30
8988;DHT22;4529;51.360;12.474;2023-07-16T18:01:25;26.10;75.10
8988;DHT22;4529;51.360;12.474;2023-07-16T18:06:28;25.70;76.20
8988;DHT22;4529;51.360;12.474;2023-07-16T18:11:33;25.50;77.50
8988;DHT22;4529;51.360;12.474;2023-07-16T18:16:35;25.30;78.70
8988;DHT22;4529;51.360;12.474;2023-07-16T18:21:38;25.20;80.10
8988;DHT22;4529;51.360;12.474;2023-07-16T18:26:42;25.20;77.20
8988;DHT22;4529;51.360;12.474;2023-07-16T18:31:45;25.10;79.10
8988;DHT22;4529;51.360;12.474;2023-07-16T18:36:49;25.10;76.70
8988;DHT22;4529;51.360;12.474;2023-07-16T18:41:52;25.20;79.30
8988;DHT22;4529;51.360;12.474;2023-07-16T18:46:56;25.20;76.60
8988;DHT22;4529;51.360;12.474;2023-07-16T18:51:59;25.10;75.70
8988;DHT22;4529;51.360;12.474;2023-07-16T18:57:03;25.10;76.30
8988;DHT22;4529;51.360;12.474;2023-07-16T19:02:06;25.00;76.30
8988;DHT22;4529;51.360;12.474;2023-07-16T19:07:10;25.00;75.90
8988;DHT22;4529;51.360;12.474;2023-07-16T19:12:13;24.90;76.80
8988;DHT22;4529;51.360;12.474;2023-07-16T19:17:17;24.70;76.30
8988;DHT22;4529;51.360;12.474;2023-07-16T19:22:21;24.60;77.40
8988;DHT22;4529;51.360;12.474;2023-07-16T19:27:24;24.40;81.90
8988;DHT22;4529;51.360;12.474;2023-07-16T19:32:27;24.00;83.20
8988;DHT22;4529;51.360;12.474;2023-07-16T19:37:30;23.70;84.80
8988;DHT22;4529;51.360;12.474;2023-07-16T19:42:34;23.40;85.90
8988;DHT22;4529;51.360;12.474;2023-07-16T19:47:37;23.20;85.80
8988;DHT22;4529;51.360;12.474;2023-07-16T19:52:53;22.90;87.40
8988;DHT22;4529;51.360;12.474;2023-07-16T19:57:56;22.70;88.60
8988;DHT22;4529;51.360;12.474;2023-07-16T20:03:00;22.60;90.70
8988;DHT22;4529;51.360;12.474;2023-07-16T20:08:03;22.40;91.20
8988;DHT22;4529;51.360;12.474;2023-07-16T20:13:07;22.10;91.70
8988;DHT22;4529;51.360;12.474;2023-07-16T20:18:12;21.80;93.90
8988;DHT22;4529;51.360;12.474;2023-07-16T20:23:15;21.70;95.40
8988;DHT22;4529;51.360;12.474;2023-07-16T20:28:19;21.50;96.90
8988;DHT22;4529;51.360;12.474;2023-07-16T20:33:23;21.40;99.20
8988;DHT22;4529;51.360;12.474;2023-07-16T20:38:27;21.30;99.10
8988;DHT22;4529;51.360;12.474;2023-07-16T20:43:30;21.20;99.90
8988;DHT22;4529;51.360;12.474;2023-07-16T20:48:34;21.10;99.90
8988;DHT22;4529;51.360;12.474;2023-07-16T20:53:39;20.90;99.90
8988;DHT22;4529;51.360;12.474;2023-07-16T20:58:41;20.80;99.90
8988;DHT22;4529;51.360;12.474;2023-07-16T21:03:44;20.70;99.90
8988;DHT22;4529;51.360;12.474;2023-07-16T21:08:48;20.50;99.90
8988;DHT22;4529;51.360;12.474;2023-07-16T21:13:51;20.50;99.90
8988;DHT22;4529;51.360;12.474;2023-07-16T21:18:55;20.50;99.90
8988;DHT22;4529;51.360;12.474;2023-07-16T21:23:58;20.40;99.90
8988;DHT22;4529;51.360;12.474;2023-07-16T21:29:02;20.30;99.90
8988;DHT22;4529;51.360;12.474;2023-07-16T21:34:05;20.30;99.90
8988;DHT22;4529;51.360;12.474;2023-07-16T21:39:08;20.20;99.90
8988;DHT22;4529;51.360;12.474;2023-07-16T21:44:12;20.10;99.90
8988;DHT22;4529;51.360;12.474;2023-07-16T21:49:15;20.00;99.90
8988;DHT22;4529;51.360;12.474;2023-07-16T21:54:19;19.90;99.90
8988;DHT22;4529;51.360;12.474;2023-07-16T21:59:22;19.90;99.90
8988;DHT22;4529;51.360;12.474;2023-07-16T22:04:26;19.80;99.90
8988;DHT22;4529;51.360;12.474;2023-07-16T22:09:29;19.70;99.90
8988;DHT22;4529;51.360;12.474;2023-07-16T22:14:33;19.60;99.90
8988;DHT22;4529;51.360;12.474;2023-07-16T22:19:36;19.40;99.90
8988;DHT22;4529;51.360;12.474;2023-07-16T22:24:40;19.40;99.90
8988;DHT22;4529;51.360;12.474;2023-07-16T22:29:43;19.20;99.90
8988;DHT22;4529;51.360;12.474;2023-07-16T22:34:47;19.10;99.90
8988;DHT22;4529;51.360;12.474;2023-07-16T22:39:50;19.00;99.90
8988;DHT22;4529;51.360;12.474;2023-07-16T22:44:53;19.00;99.90
8988;DHT22;4529;51.360;12.474;2023-07-16T22:49:57;18.90;99.90
8988;DHT22;4529;51.360;12.474;2023-07-16T22:55:00;18.80;99.90
8988;DHT22;4529;51.360;12.474;2023-07-16T23:00:05;18.70;99.90
8988;DHT22;4529;51.360;12.474;2023-07-16T23:05:08;18.70;99.90
8988;DHT22;4529;51.360;12.474;2023-07-16T23:10:12;18.60;99.90
8988;DHT22;4529;51.360;12.474;2023-07-16T23:15:16;18.60;99.90
8988;DHT22;4529;51.360;12.474;2023-07-16T23:20:19;18.50;99.90
8988;DHT22;4529;51.360;12.474;2023-07-16T23:25:22;18.50;99.90
8988;DHT22;4529;51.360;12.474;2023-07-16T23:30:26;18.40;99.90
8988;DHT22;4529;51.360;12.474;2023-07-16T23:35:30;18.40;99.90
8988;DHT22;4529;51.360;12.474;2023-07-16T23:40:33;18.30;99.90
8988;DHT22;4529;51.360;12.474;2023-07-16T23:45:36;18.30;99.90
8988;DHT22;4529;51.360;12.474;2023-07-16T23:50:40;18.30;99.90
8988;DHT22;4529;51.360;12.474;2023-07-16T23:55:43;18.30;99.90
